Time;durP1;ratioP1;P1;durP2;ratioP2;P2;SDS_P1;SDS_P2;PMS_P1;PMS_P2;Temp;Humidity;BMP_temperature;BMP_pressure;BME280_temperature;BME280_humidity;BME280_pressure;Samples;Min_cycle;Max_cycle;Signal;HPM_P1;HPM_P2
2021/08/05 00:00:54;;;;;;;;;;;;;;;22.37;59.63;99792.06;2086238;28;19915;-43
2021/08/05 00:01:54;;;;;;;;;;;;;;;22.37;59.58;99794.81;2084616;28;19944;-43
2021/08/05 00:02:55;;;;;;;;;;;;;;;22.37;59.55;99788.47;2084037;28;19909;-43
2021/08/05 00:03:55;;;;;;;;;;;;;;;22.36;59.64;99784.84;2085564;28;19917;-43
2021/08/05 00:04:55;;;;;;;;;;;;;;;22.36;59.71;99783.97;2084176;28;19924;-44
2021/08/05 00:05:56;;;;;;;;;;;;;;;22.37;59.59;99788.47;2086581;28;20223;-43
2021/08/05 00:06:56;;;;;;;;;;;;;;;22.37;59.72;99785.72;2085525;28;20010;-43
2021/08/05 00:07:56;;;;;;;;;;;;;;;22.36;59.74;99778.50;2085638;28;19924;-43
2021/08/05 00:08:57;;;;;;;;;;;;;;;22.37;59.79;99785.72;2085259;28;19924;-43
2021/08/05 00:09:57;;;;;;;;;;;;;;;22.36;59.78;99789.47;2083891;28;19996;-43
2021/08/05 00:10:57;;;;;;;;;;;;;;;22.36;59.72;99792.22;2083946;28;19920;-43
2021/08/05 00:11:58;;;;;;;;;;;;;;;22.35;59.84;99794.13;2085120;28;19920;-43
2021/08/05 00:12:58;;;;;;;;;;;;;;;22.36;59.62;99784.84;2088879;28;19943;-43
2021/08/05 00:13:59;;;;;;;;;;;;;;;22.35;59.55;99785.88;2084196;28;19982;-43
2021/08/05 00:14:59;;;;;;;;;;;;;;;22.36;59.66;99781.25;2086381;28;19913;-43
2021/08/05 00:16:00;;;;;;;;;;;;;;;22.36;59.55;99775.75;2084185;28;19916;-44
2021/08/05 00:17:00;;;;;;;;;;;;;;;22.35;59.48;99777.66;2083647;28;19966;-43
2021/08/05 00:18:00;;;;;;;;;;;;;;;22.34;59.80;99775.94;2085490;28;20006;-42
2021/08/05 00:19:00;;;;;;;;;;;;;;;22.36;59.77;99776.59;2085758;28;20396;-43
2021/08/05 00:20:01;;;;;;;;;;;;;;;22.35;59.70;99772.16;2083228;28;20459;-43
2021/08/05 00:21:02;;;;;;;;;;;;;;;22.35;59.60;99776.78;2086475;28;20125;-43
2021/08/05 00:22:02;;;;;;;;;;;;;;;22.34;59.60;99775.06;2083929;28;20261;-43
2021/08/05 00:23:03;;;;;;;;;;;;;;;22.35;59.79;99771.31;2085075;28;19920;-44
2021/08/05 00:24:03;;;;;;;;;;;;;;;22.34;59.72;99770.44;2085041;28;19912;-44
2021/08/05 00:25:04;;;;;;;;;;;;;;;22.36;59.52;99767.50;2079105;28;19917;-44
2021/08/05 00:26:04;;;;;;;;;;;;;;;22.34;59.71;99775.94;2084956;28;20138;-44
2021/08/05 00:27:04;;;;;;;;;;;;;;;22.36;59.86;99767.50;2084721;28;19916;-43
2021/08/05 00:28:05;;;;;;;;;;;;;;;22.36;59.59;99781.25;2085467;28;19913;-43
2021/08/05 00:29:05;;;;;;;;;;;;;;;22.35;59.64;99776.78;2084832;28;20310;-43
2021/08/05 00:30:06;;;;;;;;;;;;;;;22.36;59.71;99778.50;2084270;28;19943;-44
2021/08/05 00:31:06;;;;;;;;;;;;;;;22.35;59.79;99763.06;2084225;28;19908;-44
2021/08/05 00:32:06;;;;;;;;;;;;;;;22.36;59.60;99767.50;2083649;28;19965;-46
2021/08/05 00:33:07;;;;;;;;;;;;;;;22.35;59.60;99765.81;2084046;28;19970;-46
2021/08/05 00:34:07;;;;;;;;;;;;;;;22.36;59.63;99773.00;2083196;28;20048;-45
2021/08/05 00:35:08;;;;;;;;;;;;;;;22.35;59.62;99765.81;2085214;28;19919;-46
2021/08/05 00:36:08;;;;;;;;;;;;;;;22.35;59.55;99765.81;2084795;28;20349;-44
2021/08/05 00:37:08;;;;;;;;;;;;;;;22.35;59.58;99754.81;2084053;28;19938;-43
2021/08/05 00:38:09;;;;;;;;;;;;;;;22.35;59.73;99754.81;2085305;28;20342;-44
2021/08/05 00:39:09;;;;;;;;;;;;;;;22.35;59.72;99760.31;2085871;28;20030;-44
2021/08/05 00:40:09;;;;;;;;;;;;;;;22.34;59.87;99755.84;2084844;28;19909;-44
2021/08/05 00:41:09;;;;;;;;;;;;;;;22.34;59.73;99764.09;2084152;28;19916;-44
2021/08/05 00:42:10;;;;;;;;;;;;;;;22.33;59.78;99760.47;2085993;28;20239;-44
2021/08/05 00:43:10;;;;;;;;;;;;;;;22.32;59.62;99758.78;2085656;28;19917;-44
2021/08/05 00:44:10;;;;;;;;;;;;;;;22.34;59.63;99761.34;2085634;28;19995;-46
2021/08/05 00:45:11;;;;;;;;;;;;;;;22.34;59.64;99758.59;2084728;28;20309;-44
2021/08/05 00:46:11;;;;;;;;;;;;;;;22.33;59.82;99757.75;2083605;28;20443;-44
2021/08/05 00:47:11;;;;;;;;;;;;;;;22.33;59.77;99757.75;2085723;28;19929;-44
2021/08/05 00:48:12;;;;;;;;;;;;;;;22.33;59.80;99763.22;2084302;28;20326;-45
2021/08/05 00:49:12;;;;;;;;;;;;;;;22.33;59.75;99763.22;2076240;28;20330;-43
2021/08/05 00:50:13;;;;;;;;;;;;;;;22.33;59.82;99762.38;2092029;28;19916;-44
2021/08/05 00:51:13;;;;;;;;;;;;;;;22.33;59.84;99759.63;2099297;28;19911;-43
2021/08/05 00:52:14;;;;;;;;;;;;;;;22.34;59.79;99753.09;2082221;28;19923;-43
2021/08/05 00:53:15;;;;;;;;;;;;;;;22.33;59.55;99759.63;2082980;28;20240;-44
2021/08/05 00:54:16;;;;;;;;;;;;;;;22.33;59.58;99756.88;2083640;28;20444;-43
2021/08/05 00:55:16;;;;;;;;;;;;;;;22.34;59.68;99764.09;2084422;28;20026;-45
2021/08/05 00:56:16;;;;;;;;;;;;;;;22.33;59.83;99745.91;2084469;28;19939;-43
2021/08/05 00:57:17;;;;;;;;;;;;;;;22.32;59.73;99744.19;2084588;28;19927;-44
2021/08/05 00:58:17;;;;;;;;;;;;;;;22.33;59.76;99751.41;2085127;28;20145;-43
2021/08/05 00:59:17;;;;;;;;;;;;;;;22.33;59.70;99748.66;2084256;28;20452;-43
2021/08/05 01:00:18;;;;;;;;;;;;;;;22.34;59.61;99753.09;2085005;28;19917;-43
2021/08/05 01:01:19;;;;;;;;;;;;;;;22.34;59.71;99744.84;2084834;28;19923;-44
2021/08/05 01:02:20;;;;;;;;;;;;;;;22.34;59.61;99753.09;2085368;28;20004;-43
2021/08/05 01:03:26;;;;;;;;;;;;;;;22.32;59.74;99734.06;2084009;28;20004;-43
2021/08/05 01:04:27;;;;;;;;;;;;;;;22.32;59.60;99739.56;2085022;28;19935;-43
2021/08/05 01:05:29;;;;;;;;;;;;;;;22.32;59.76;99733.19;2081070;28;19988;-43
2021/08/05 01:06:42;;;;;;;;;;;;;;;22.33;59.79;99732.19;2081906;28;19913;-43
2021/08/05 01:08:01;;;;;;;;;;;;;;;22.32;59.73;99734.06;2084766;28;19913;-44
2021/08/05 01:09:06;;;;;;;;;;;;;;;22.32;59.75;99738.69;2081598;28;19931;-43
2021/08/05 01:10:25;;;;;;;;;;;;;;;22.33;59.58;99740.41;2083058;28;19916;-44
2021/08/05 01:11:27;;;;;;;;;;;;;;;22.32;59.81;99749.66;2085940;28;20134;-44
2021/08/05 01:12:46;;;;;;;;;;;;;;;22.32;59.63;99749.66;2085092;28;20025;-44
2021/08/05 01:13:55;;;;;;;;;;;;;;;22.33;59.63;99743.16;2084808;28;19913;-43
2021/08/05 01:15:03;;;;;;;;;;;;;;;22.33;59.58;99744.00;2084391;28;19916;-43
2021/08/05 01:16:08;;;;;;;;;;;;;;;22.33;59.65;99751.41;2080672;28;19916;-44
2021/08/05 01:17:10;;;;;;;;;;;;;;;22.33;59.74;99734.94;2084973;28;19917;-43
2021/08/05 01:18:12;;;;;;;;;;;;;;;22.32;59.76;99738.69;2084823;28;20488;-43
2021/08/05 01:19:22;;;;;;;;;;;;;;;22.33;59.58;99734.94;2085597;28;19917;-44
2021/08/05 01:20:23;;;;;;;;;;;;;;;22.31;59.82;99726.00;2083672;28;20171;-42
2021/08/05 01:21:28;;;;;;;;;;;;;;;22.33;59.67;99723.94;2083929;28;19952;-44
2021/08/05 01:22:44;;;;;;;;;;;;;;;22.31;59.61;99726.00;2078844;28;19939;-43
2021/08/05 01:23:52;;;;;;;;;;;;;;;22.31;59.59;99723.25;2083697;28;19943;-43
2021/08/05 01:24:59;;;;;;;;;;;;;;;22.32;59.78;99730.44;2084027;28;19916;-43
2021/08/05 01:26:13;;;;;;;;;;;;;;;22.32;59.78;99733.19;2077747;28;19924;-43
2021/08/05 01:27:14;;;;;;;;;;;;;;;22.32;59.65;99738.69;2083773;28;19956;-43
2021/08/05 01:28:15;;;;;;;;;;;;;;;22.33;59.65;99729.44;2083994;28;20377;-43
2021/08/05 01:29:16;;;;;;;;;;;;;;;22.32;59.73;99733.19;2077906;28;19923;-44
2021/08/05 01:30:16;;;;;;;;;;;;;;;22.32;59.84;99738.69;2082858;28;19955;-44
2021/08/05 01:31:20;;;;;;;;;;;;;;;22.32;59.90;99733.19;2082576;28;19916;-43
2021/08/05 01:32:21;;;;;;;;;;;;;;;22.32;59.57;99733.19;2081338;28;19924;-43
2021/08/05 01:33:22;;;;;;;;;;;;;;;22.32;59.78;99733.19;2100052;28;19919;-43
2021/08/05 01:34:23;;;;;;;;;;;;;;;22.32;59.72;99734.06;2101207;28;19915;-43
2021/08/05 01:35:24;;;;;;;;;;;;;;;22.33;59.76;99740.41;2085347;28;20039;-43
2021/08/05 01:36:25;;;;;;;;;;;;;;;22.32;59.65;99730.44;2085397;28;19916;-43
2021/08/05 01:37:27;;;;;;;;;;;;;;;22.32;59.60;99727.69;2084029;28;19909;-43
2021/08/05 01:38:28;;;;;;;;;;;;;;;22.31;59.84;99737.00;2083874;28;19920;-44
2021/08/05 01:39:29;;;;;;;;;;;;;;;22.32;59.76;99741.44;2101708;28;19945;-44
2021/08/05 01:40:30;;;;;;;;;;;;;;;22.31;59.66;99731.50;2096805;28;20018;-43
2021/08/05 01:41:30;;;;;;;;;;;;;;;22.31;59.51;99740.59;2084723;28;20425;-43
2021/08/05 01:42:31;;;;;;;;;;;;;;;22.32;59.76;99730.44;2084102;28;20137;-43
2021/08/05 01:43:32;;;;;;;;;;;;;;;22.31;59.67;99732.34;2085646;28;19922;-43
2021/08/05 01:44:32;;;;;;;;;;;;;;;22.31;59.75;99731.50;2084046;28;19920;-43
2021/08/05 01:45:34;;;;;;;;;;;;;;;22.30;59.61;99735.28;2082184;28;20301;-44
2021/08/05 01:46:34;;;;;;;;;;;;;;;22.29;59.81;99734.41;2083842;28;19913;-43
2021/08/05 01:47:36;;;;;;;;;;;;;;;22.29;59.74;99734.41;2084228;28;19908;-43
2021/08/05 01:48:37;;;;;;;;;;;;;;;22.31;59.80;99742.47;2084395;28;19928;-43
2021/08/05 01:49:39;;;;;;;;;;;;;;;22.30;59.83;99738.88;2092629;28;19920;-43
2021/08/05 01:50:41;;;;;;;;;;;;;;;22.31;59.89;99737.84;2093914;28;19989;-43
2021/08/05 01:51:42;;;;;;;;;;;;;;;22.31;59.65;99734.25;2083454;28;19912;-43
2021/08/05 01:52:44;;;;;;;;;;;;;;;22.32;59.55;99727.69;2083865;28;19915;-43
2021/08/05 01:53:44;;;;;;;;;;;;;;;22.30;59.64;99719.66;2084848;28;19917;-44
2021/08/05 01:54:45;;;;;;;;;;;;;;;22.31;59.61;99720.50;2084144;28;19917;-43
2021/08/05 01:55:46;;;;;;;;;;;;;;;22.31;59.68;99724.09;2084380;28;20404;-43
2021/08/05 01:56:46;;;;;;;;;;;;;;;22.31;59.65;99723.25;2085192;28;19923;-43
2021/08/05 01:57:47;;;;;;;;;;;;;;;22.31;59.63;99726.84;2084712;28;20376;-44
2021/08/05 01:58:47;;;;;;;;;;;;;;;22.30;59.74;99721.56;2084399;28;20177;-43
2021/08/05 01:59:47;;;;;;;;;;;;;;;22.31;59.82;99715.03;2084991;28;19917;-44
2021/08/05 02:00:48;;;;;;;;;;;;;;;22.30;59.79;99705.94;2083964;28;19917;-43
2021/08/05 02:01:48;;;;;;;;;;;;;;;22.30;59.58;99691.34;2085279;28;19923;-43
2021/08/05 02:02:53;;;;;;;;;;;;;;;22.29;59.81;99682.25;2083211;28;20266;-43
2021/08/05 02:03:59;;;;;;;;;;;;;;;22.31;59.61;99684.81;2084737;28;20380;-44
2021/08/05 02:05:03;;;;;;;;;;;;;;;22.29;59.82;99695.13;2084691;28;20538;-43
2021/08/05 02:06:06;;;;;;;;;;;;;;;22.30;59.76;99691.34;2082730;28;19944;-43
2021/08/05 02:07:22;;;;;;;;;;;;;;;22.28;59.75;99690.69;2086269;28;19946;-43
2021/08/05 02:08:25;;;;;;;;;;;;;;;22.28;59.78;99694.28;2085763;28;20028;-43
2021/08/05 02:09:28;;;;;;;;;;;;;;;22.29;59.79;99695.13;2082982;28;19964;-43
2021/08/05 02:10:43;;;;;;;;;;;;;;;22.29;59.68;99692.38;2085798;28;19924;-43
2021/08/05 02:11:47;;;;;;;;;;;;;;;22.30;59.75;99694.09;2084168;28;20038;-43
2021/08/05 02:12:48;;;;;;;;;;;;;;;22.30;59.74;99699.59;2083188;28;20662;-44
2021/08/05 02:13:50;;;;;;;;;;;;;;;22.30;59.82;99702.34;2084994;28;19916;-43
2021/08/05 02:14:53;;;;;;;;;;;;;;;22.29;59.64;99698.72;2083924;28;19916;-44
2021/08/05 02:16:00;;;;;;;;;;;;;;;22.29;59.79;99697.88;2084445;28;19942;-43
2021/08/05 02:17:01;;;;;;;;;;;;;;;22.29;59.66;99697.88;2085843;28;19991;-43
2021/08/05 02:18:03;;;;;;;;;;;;;;;22.28;59.67;99702.50;2097335;28;19922;-43
2021/08/05 02:19:03;;;;;;;;;;;;;;;22.29;59.58;99695.13;2093714;28;19926;-43
2021/08/05 02:20:07;;;;;;;;;;;;;;;22.29;59.65;99700.63;2083319;28;19916;-43
2021/08/05 02:21:08;;;;;;;;;;;;;;;22.29;59.71;99700.63;2083797;28;20027;-43
2021/08/05 02:22:08;;;;;;;;;;;;;;;22.30;59.85;99702.34;2085221;28;19916;-43
2021/08/05 02:23:09;;;;;;;;;;;;;;;22.28;59.78;99694.28;2082666;28;20890;-43
2021/08/05 02:24:10;;;;;;;;;;;;;;;22.29;59.71;99700.63;2084889;28;19990;-43
2021/08/05 02:25:11;;;;;;;;;;;;;;;22.28;59.85;99704.41;2084137;28;19920;-43
2021/08/05 02:26:11;;;;;;;;;;;;;;;22.28;59.71;99702.50;2082790;28;19920;-43
2021/08/05 02:27:12;;;;;;;;;;;;;;;22.28;59.55;99698.91;2084273;28;19916;-43
2021/08/05 02:28:13;;;;;;;;;;;;;;;22.28;59.63;99705.25;2083749;28;19950;-44
2021/08/05 02:29:15;;;;;;;;;;;;;;;22.29;59.74;99695.13;2085495;28;19921;-44
2021/08/05 02:30:16;;;;;;;;;;;;;;;22.26;59.57;99694.44;2082373;28;20279;-43
2021/08/05 02:31:17;;;;;;;;;;;;;;;22.27;59.89;99698.06;2091868;28;20002;-43
2021/08/05 02:32:18;;;;;;;;;;;;;;;22.28;59.88;99693.44;2094994;28;19923;-43
2021/08/05 02:33:20;;;;;;;;;;;;;;;22.28;59.88;99698.91;2085025;28;19924;-43
2021/08/05 02:34:21;;;;;;;;;;;;;;;22.28;59.95;99708.00;2083198;28;19916;-43
2021/08/05 02:35:22;;;;;;;;;;;;;;;22.29;59.82;99708.84;2083763;28;20330;-44
2021/08/05 02:36:22;;;;;;;;;;;;;;;22.28;59.82;99704.41;2085561;28;19925;-43
2021/08/05 02:37:23;;;;;;;;;;;;;;;22.28;59.67;99704.41;2083959;28;20386;-43
2021/08/05 02:38:24;;;;;;;;;;;;;;;22.28;59.91;99698.91;2085154;28;20223;-43
2021/08/05 02:39:24;;;;;;;;;;;;;;;22.28;59.84;99690.69;2084027;28;19912;-43
2021/08/05 02:40:25;;;;;;;;;;;;;;;22.26;59.91;99691.69;2083680;28;20430;-43
2021/08/05 02:41:26;;;;;;;;;;;;;;;22.26;59.71;99694.44;2083536;28;20870;-44
2021/08/05 02:42:27;;;;;;;;;;;;;;;22.26;59.67;99686.22;2085695;28;19920;-43
2021/08/05 02:43:28;;;;;;;;;;;;;;;22.27;59.71;99698.06;2083318;28;20003;-43
2021/08/05 02:44:29;;;;;;;;;;;;;;;22.26;59.89;99690.84;2085073;28;19938;-44
2021/08/05 02:45:30;;;;;;;;;;;;;;;22.25;59.93;99684.50;2083561;28;20231;-44
2021/08/05 02:46:31;;;;;;;;;;;;;;;22.26;59.63;99675.22;2085935;28;19916;-43
2021/08/05 02:47:31;;;;;;;;;;;;;;;22.26;59.83;99675.22;2083312;28;19924;-43
2021/08/05 02:48:32;;;;;;;;;;;;;;;22.26;59.83;99669.72;2084241;28;19916;-43
2021/08/05 02:49:33;;;;;;;;;;;;;;;22.25;59.78;99665.28;2083515;28;19927;-42
2021/08/05 02:50:35;;;;;;;;;;;;;;;22.24;59.82;99669.09;2084452;28;19916;-43
2021/08/05 02:51:35;;;;;;;;;;;;;;;22.25;59.86;99665.28;2084995;28;19966;-43
2021/08/05 02:52:37;;;;;;;;;;;;;;;22.26;59.71;99674.38;2084049;28;20377;-43
2021/08/05 02:53:38;;;;;;;;;;;;;;;22.26;59.79;99669.72;2084400;28;20434;-43
2021/08/05 02:54:38;;;;;;;;;;;;;;;22.26;59.78;99667.00;2084589;28;19909;-43
2021/08/05 02:55:38;;;;;;;;;;;;;;;22.26;59.67;99657.91;2083528;28;19916;-43
2021/08/05 02:56:40;;;;;;;;;;;;;;;22.26;59.67;99649.66;2083430;28;19921;-43
2021/08/05 02:57:41;;;;;;;;;;;;;;;22.25;59.89;99635.09;2087111;28;19928;-43
2021/08/05 02:58:41;;;;;;;;;;;;;;;22.26;59.76;99631.28;2085665;28;19908;-43
2021/08/05 02:59:42;;;;;;;;;;;;;;;22.25;59.94;99626.84;2086582;28;19916;-44
2021/08/05 03:00:43;;;;;;;;;;;;;;;22.26;59.75;99624.97;2084854;28;19952;-43
2021/08/05 03:01:43;;;;;;;;;;;;;;;22.26;59.80;99630.44;2086512;28;20399;-43
2021/08/05 03:02:44;;;;;;;;;;;;;;;22.25;59.70;99624.09;2085186;28;19970;-43
2021/08/05 03:03:44;;;;;;;;;;;;;;;22.25;59.62;99637.84;2086141;28;19904;-43
2021/08/05 03:04:45;;;;;;;;;;;;;;;22.25;59.68;99635.09;2085770;28;19916;-44
2021/08/05 03:05:45;;;;;;;;;;;;;;;22.26;59.68;99641.44;2084983;28;19927;-43
2021/08/05 03:06:46;;;;;;;;;;;;;;;22.25;59.55;99629.59;2086905;28;19913;-44
2021/08/05 03:07:46;;;;;;;;;;;;;;;22.25;59.76;99629.59;2084912;28;19916;-43
2021/08/05 03:08:46;;;;;;;;;;;;;;;22.24;59.59;99627.91;2085885;28;19960;-44
2021/08/05 03:09:47;;;;;;;;;;;;;;;22.25;59.62;99637.00;2085353;28;19917;-44
2021/08/05 03:10:47;;;;;;;;;;;;;;;22.24;59.71;99644.38;2084105;28;19912;-43
2021/08/05 03:11:47;;;;;;;;;;;;;;;22.25;59.64;99648.81;2086679;28;20664;-47
2021/08/05 03:12:47;;;;;;;;;;;;;;;22.24;59.62;99638.88;2084887;28;20288;-46
2021/08/05 03:13:48;;;;;;;;;;;;;;;22.24;59.72;99638.88;2087555;28;20313;-47
2021/08/05 03:14:48;;;;;;;;;;;;;;;22.24;59.83;99644.38;2086106;28;20346;-43
2021/08/05 03:15:48;;;;;;;;;;;;;;;22.25;59.74;99645.22;2085650;28;20427;-45
2021/08/05 03:16:49;;;;;;;;;;;;;;;22.25;59.73;99646.06;2086383;28;19924;-44
2021/08/05 03:17:49;;;;;;;;;;;;;;;22.24;59.57;99647.13;2084190;28;19916;-44
2021/08/05 03:18:49;;;;;;;;;;;;;;;22.24;59.58;99644.38;2086257;28;20095;-43
2021/08/05 03:19:50;;;;;;;;;;;;;;;22.25;59.69;99646.06;2086449;28;19912;-43
2021/08/05 03:20:50;;;;;;;;;;;;;;;22.25;59.79;99654.31;2085764;28;21075;-43
2021/08/05 03:21:50;;;;;;;;;;;;;;;22.25;59.76;99657.06;2085534;28;20175;-43
2021/08/05 03:22:50;;;;;;;;;;;;;;;22.25;59.65;99662.53;2085496;28;19920;-44
2021/08/05 03:23:51;;;;;;;;;;;;;;;22.23;59.67;99664.63;2085571;28;19971;-43
2021/08/05 03:24:51;;;;;;;;;;;;;;;22.25;59.77;99667.19;2085947;28;19916;-45
2021/08/05 03:25:51;;;;;;;;;;;;;;;22.24;59.72;99674.56;2084707;28;19962;-43
2021/08/05 03:26:52;;;;;;;;;;;;;;;22.24;59.63;99671.84;2085469;28;20322;-44
2021/08/05 03:27:52;;;;;;;;;;;;;;;22.23;59.78;99675.59;2085691;28;19977;-44
2021/08/05 03:28:52;;;;;;;;;;;;;;;22.25;59.83;99669.94;2085404;28;19920;-43
2021/08/05 03:29:52;;;;;;;;;;;;;;;22.23;59.61;99670.09;2085735;28;20325;-45
2021/08/05 03:30:53;;;;;;;;;;;;;;;22.23;59.78;99672.84;2084802;28;19916;-43
2021/08/05 03:31:53;;;;;;;;;;;;;;;22.23;59.86;99672.00;2085921;28;19917;-45
2021/08/05 03:32:54;;;;;;;;;;;;;;;22.24;59.83;99677.31;2100970;28;20325;-44
2021/08/05 03:33:54;;;;;;;;;;;;;;;22.24;59.62;99682.81;2098684;28;20050;-44
2021/08/05 03:34:54;;;;;;;;;;;;;;;22.24;59.80;99677.31;2085069;28;19970;-44
2021/08/05 03:35:54;;;;;;;;;;;;;;;22.24;59.61;99682.81;2085830;28;19970;-44
2021/08/05 03:36:55;;;;;;;;;;;;;;;22.24;59.83;99677.31;2084979;28;19953;-43
2021/08/05 03:37:55;;;;;;;;;;;;;;;22.23;59.62;99670.09;2085538;28;19916;-43
2021/08/05 03:38:56;;;;;;;;;;;;;;;22.24;59.63;99671.84;2085016;28;19916;-43
2021/08/05 03:39:56;;;;;;;;;;;;;;;22.23;59.69;99675.59;2087884;28;19926;-43
2021/08/05 03:40:57;;;;;;;;;;;;;;;22.23;59.71;99675.59;2085920;28;20273;-43
2021/08/05 03:41:57;;;;;;;;;;;;;;;22.23;59.62;99680.25;2086022;28;20353;-44
2021/08/05 03:42:58;;;;;;;;;;;;;;;22.23;59.63;99672.84;2084487;28;20328;-43
2021/08/05 03:43:58;;;;;;;;;;;;;;;22.23;59.69;99672.84;2084554;28;20505;-43
2021/08/05 03:44:58;;;;;;;;;;;;;;;22.23;59.67;99672.00;2086661;28;20723;-43
2021/08/05 03:45:59;;;;;;;;;;;;;;;22.24;59.81;99671.84;2084585;28;20011;-43
2021/08/05 03:46:59;;;;;;;;;;;;;;;22.23;59.68;99672.00;2084483;28;20194;-43
2021/08/05 03:47:59;;;;;;;;;;;;;;;22.22;59.61;99673.91;2084352;28;20376;-44
2021/08/05 03:49:00;;;;;;;;;;;;;;;22.22;59.61;99673.91;2085822;28;19964;-43
2021/08/05 03:50:00;;;;;;;;;;;;;;;22.23;59.52;99680.25;2085224;28;20876;-43
2021/08/05 03:51:00;;;;;;;;;;;;;;;22.22;59.69;99679.38;2085144;28;20657;-43
2021/08/05 03:52:01;;;;;;;;;;;;;;;22.24;59.64;99677.31;2086285;28;19927;-45
2021/08/05 03:53:01;;;;;;;;;;;;;;;22.22;59.58;99673.91;2086062;28;19921;-43
2021/08/05 03:54:01;;;;;;;;;;;;;;;22.23;59.71;99672.84;2085109;28;19916;-44
2021/08/05 03:55:02;;;;;;;;;;;;;;;22.22;59.82;99679.38;2087615;28;19920;-43
2021/08/05 03:56:03;;;;;;;;;;;;;;;22.23;59.63;99669.25;2084735;28;19939;-44
2021/08/05 03:57:03;;;;;;;;;;;;;;;22.22;59.59;99678.50;2086336;28;19955;-43
2021/08/05 03:58:06;;;;;;;;;;;;;;;22.23;59.55;99680.25;2085226;28;19934;-44
2021/08/05 03:59:06;;;;;;;;;;;;;;;22.22;59.72;99678.50;2092441;28;19908;-43
2021/08/05 04:00:10;;;;;;;;;;;;;;;22.22;59.63;99676.66;2102535;28;19945;-43
2021/08/05 04:01:11;;;;;;;;;;;;;;;22.23;59.62;99686.56;2087347;28;20322;-43
2021/08/05 04:02:11;;;;;;;;;;;;;;;22.21;59.89;99683.16;2085335;28;20011;-44
2021/08/05 04:03:11;;;;;;;;;;;;;;;22.22;59.69;99684.00;2084255;28;19944;-43
2021/08/05 04:04:12;;;;;;;;;;;;;;;22.22;59.60;99673.91;2083260;28;20226;-43
2021/08/05 04:05:12;;;;;;;;;;;;;;;22.22;59.77;99667.53;2084154;28;20029;-43
2021/08/05 04:06:13;;;;;;;;;;;;;;;22.22;59.64;99673.00;2088885;28;19923;-43
2021/08/05 04:07:13;;;;;;;;;;;;;;;22.21;59.51;99671.31;2084203;28;19982;-43
2021/08/05 04:08:13;;;;;;;;;;;;;;;22.22;59.74;99667.53;2085395;28;19928;-43
2021/08/05 04:09:13;;;;;;;;;;;;;;;22.22;59.76;99673.00;2084321;28;19963;-43
2021/08/05 04:10:14;;;;;;;;;;;;;;;22.21;59.72;99671.31;2086067;28;19916;-43
2021/08/05 04:11:14;;;;;;;;;;;;;;;22.21;59.66;99665.84;2084832;28;20280;-43
2021/08/05 04:12:14;;;;;;;;;;;;;;;22.21;59.61;99669.41;2084779;28;19916;-43
2021/08/05 04:13:17;;;;;;;;;;;;;;;22.21;59.58;99666.69;2085860;28;20015;-43
2021/08/05 04:14:17;;;;;;;;;;;;;;;22.20;59.66;99670.47;2084270;28;19920;-43
2021/08/05 04:15:17;;;;;;;;;;;;;;;22.20;59.78;99664.97;2085558;28;20226;-44
2021/08/05 04:16:18;;;;;;;;;;;;;;;22.20;59.66;99664.97;2084728;28;20230;-43
2021/08/05 04:17:18;;;;;;;;;;;;;;;22.20;59.74;99661.38;2085159;28;20457;-43
2021/08/05 04:18:19;;;;;;;;;;;;;;;22.20;59.68;99664.97;2082802;28;19998;-44
2021/08/05 04:19:19;;;;;;;;;;;;;;;22.20;59.60;99659.50;2086220;28;20346;-43
2021/08/05 04:20:21;;;;;;;;;;;;;;;22.19;59.84;99655.00;2085615;28;20325;-43
2021/08/05 04:21:22;;;;;;;;;;;;;;;22.20;59.81;99651.25;2084162;28;20310;-43
2021/08/05 04:22:22;;;;;;;;;;;;;;;22.20;59.84;99653.16;2086015;28;19923;-43
2021/08/05 04:23:23;;;;;;;;;;;;;;;22.20;59.75;99654.00;2085478;28;20311;-43
2021/08/05 04:24:23;;;;;;;;;;;;;;;22.20;59.60;99654.00;2086107;28;20605;-43
2021/08/05 04:25:24;;;;;;;;;;;;;;;22.19;59.63;99652.25;2085388;28;19909;-43
2021/08/05 04:26:24;;;;;;;;;;;;;;;22.20;59.63;99640.28;2084457;28;20441;-43
2021/08/05 04:27:24;;;;;;;;;;;;;;;22.19;59.76;99634.91;2085497;28;19909;-44
2021/08/05 04:28:24;;;;;;;;;;;;;;;22.19;59.75;99630.28;2077323;28;20030;-44
2021/08/05 04:29:25;;;;;;;;;;;;;;;22.18;59.76;99620.34;2078381;28;19950;-43
2021/08/05 04:30:25;;;;;;;;;;;;;;;22.20;59.80;99622.97;2084087;28;19913;-43
2021/08/05 04:31:26;;;;;;;;;;;;;;;22.20;59.62;99621.06;2083819;28;20023;-43
2021/08/05 04:32:26;;;;;;;;;;;;;;;22.20;59.80;99625.69;2085047;28;19912;-43
2021/08/05 04:33:27;;;;;;;;;;;;;;;22.19;59.84;99622.03;2084759;28;19966;-43
2021/08/05 04:34:28;;;;;;;;;;;;;;;22.19;59.53;99624.78;2084985;28;19916;-44
2021/08/05 04:35:28;;;;;;;;;;;;;;;22.19;59.66;99622.03;2086343;28;19920;-43
2021/08/05 04:36:28;;;;;;;;;;;;;;;22.19;59.74;99623.94;2083238;28;19924;-43
2021/08/05 04:37:28;;;;;;;;;;;;;;;22.19;59.70;99624.78;2085578;28;20007;-43
2021/08/05 04:38:29;;;;;;;;;;;;;;;22.20;59.61;99620.22;2085875;28;19918;-43
2021/08/05 04:39:29;;;;;;;;;;;;;;;22.20;59.69;99632.03;2083975;28;19923;-44
2021/08/05 04:40:30;;;;;;;;;;;;;;;22.20;59.66;99632.03;2086455;28;20311;-43
2021/08/05 04:41:30;;;;;;;;;;;;;;;22.20;59.59;99634.78;2084734;28;20034;-43
2021/08/05 04:42:31;;;;;;;;;;;;;;;22.20;59.54;99643.03;2085286;28;19917;-43
2021/08/05 04:43:31;;;;;;;;;;;;;;;22.19;59.58;99638.50;2083461;28;20338;-45
2021/08/05 04:44:31;;;;;;;;;;;;;;;22.19;59.72;99644.00;2083665;28;20230;-43
2021/08/05 04:45:32;;;;;;;;;;;;;;;22.19;59.61;99638.50;2083738;28;19917;-44
2021/08/05 04:46:32;;;;;;;;;;;;;;;22.19;59.51;99644.00;2084257;28;19939;-43
2021/08/05 04:47:32;;;;;;;;;;;;;;;22.20;59.53;99651.25;2084749;28;19917;-43
2021/08/05 04:48:33;;;;;;;;;;;;;;;22.20;59.66;99654.00;2085925;28;20011;-43
2021/08/05 04:49:33;;;;;;;;;;;;;;;22.20;59.75;99640.28;2083089;28;19951;-44
2021/08/05 04:50:38;;;;;;;;;;;;;;;22.19;59.61;99635.78;2086760;28;20899;-43
2021/08/05 04:51:38;;;;;;;;;;;;;;;22.18;59.69;99639.56;2083886;28;20064;-43
2021/08/05 04:52:38;;;;;;;;;;;;;;;22.18;59.78;99639.56;2085804;28;19922;-43
2021/08/05 04:53:39;;;;;;;;;;;;;;;22.19;59.71;99633.03;2083083;28;19920;-43
2021/08/05 04:54:39;;;;;;;;;;;;;;;22.18;59.84;99625.84;2079897;28;19917;-43
2021/08/05 04:55:39;;;;;;;;;;;;;;;22.18;59.71;99634.06;2084917;28;19917;-43
2021/08/05 04:56:39;;;;;;;;;;;;;;;22.19;59.69;99633.03;2084052;28;19927;-43
2021/08/05 04:57:49;;;;;;;;;;;;;;;22.19;59.68;99637.66;2086345;28;19923;-43
2021/08/05 04:58:49;;;;;;;;;;;;;;;22.19;59.56;99629.44;2085334;28;20236;-43
2021/08/05 04:59:50;;;;;;;;;;;;;;;22.18;59.58;99631.31;2084969;28;19912;-43
2021/08/05 05:00:50;;;;;;;;;;;;;;;22.19;59.55;99630.28;2083875;28;19916;-43
2021/08/05 05:01:50;;;;;;;;;;;;;;;22.18;59.61;99628.59;2084332;28;19948;-43
2021/08/05 05:02:51;;;;;;;;;;;;;;;22.18;59.56;99627.75;2082489;28;20502;-43
2021/08/05 05:03:51;;;;;;;;;;;;;;;22.18;59.55;99636.81;2084728;28;20123;-44
2021/08/05 05:04:51;;;;;;;;;;;;;;;22.19;59.52;99630.28;2084877;28;20436;-43
2021/08/05 05:05:52;;;;;;;;;;;;;;;22.17;59.77;99632.38;2085079;28;19924;-44
2021/08/05 05:06:52;;;;;;;;;;;;;;;22.18;59.72;99619.50;2084078;28;20560;-44
2021/08/05 05:07:53;;;;;;;;;;;;;;;22.18;59.63;99627.75;2086184;28;19926;-43
2021/08/05 05:08:53;;;;;;;;;;;;;;;22.18;59.77;99625.84;2081137;28;20414;-43
2021/08/05 05:09:53;;;;;;;;;;;;;;;22.17;59.53;99621.41;2083800;28;20111;-44
2021/08/05 05:10:56;;;;;;;;;;;;;;;22.17;59.71;99626.88;2084461;28;19923;-43
2021/08/05 05:11:56;;;;;;;;;;;;;;;22.18;59.52;99631.31;2084534;28;19920;-43
2021/08/05 05:12:56;;;;;;;;;;;;;;;22.18;59.62;99631.31;2085770;28;19970;-43
2021/08/05 05:13:57;;;;;;;;;;;;;;;22.18;59.59;99631.31;2083598;28;19916;-43
2021/08/05 05:14:57;;;;;;;;;;;;;;;22.17;59.71;99626.88;2084550;28;19928;-43
2021/08/05 05:15:57;;;;;;;;;;;;;;;22.18;59.55;99628.59;2084776;28;19917;-43
2021/08/05 05:17:00;;;;;;;;;;;;;;;22.18;59.69;99630.47;2084309;28;19916;-43
2021/08/05 05:18:00;;;;;;;;;;;;;;;22.18;59.56;99628.59;2083296;28;20326;-43
2021/08/05 05:19:01;;;;;;;;;;;;;;;22.18;59.72;99628.59;2083367;28;19916;-44
2021/08/05 05:20:02;;;;;;;;;;;;;;;22.18;59.47;99630.47;2085533;28;19916;-43